Detall de PIREP

Printer-friendly versionPDF version

[2013/11/01 07:13:00]
Flight IATA:CT3221
Pilot Number:012
Company ICAO:CAT
Aircraft Type:C750/F
PAX:4
Departing Airport: LCLK
Destination Airport: LEPA
Alternate Airport:LEBL
Online: VATSIM
Route:PHA/M080F430 UM31 MAROS UA16 KOSEG UL995 AMONO UM978 PERIM UL53 MADEX UM601 QUENN UQ123 USEPI/M080F410 UZ924 KUPIM/M080F190 Z924 RIPAL M603 MORSS
Flight Level:F430
No Slew and time accel
No pause
Crash detect
Detect pilot in Cockpit between each 30 and 45 minutes
07:13 Zero fuel Weight: 22971 Lbs, Fuel Weight: 7923 Lbs
07:13 VATSIM:LCLK 010700Z 03014KT CAVOK 25/12 Q1016 NOSIG
07:13 VATSIM:LEPA 010700Z 00000KT 9999 FEW035 10/09 Q1022 NOSIG
07:13 VOICE CATALONIAN
07:17 Parking Brakes off
07:21 Take-off
07:21 Take off Weight: 30801 Lbs
07:21 Wind: 025º @ 014 Knots Heading: 043º
07:21 POS N34º 52´ 26´´ E033º 37´ 26´´
07:21 Gear Up: 155 Knots
07:21 Flaps:3 at 155 Knots
07:21Flaps:2 at 159 Knots
07:21 Flaps:0 at 165 Knots
07:36 Wind:353º@014 Knots Heading: 267º Ground Speed: 503 Knots Altitude 41938 ft
07:36 TOC
07:36 Fuel Weight: 7204 Lb
07:51 Wind:276º@019 Knots Heading: 282º Ground Speed: 495 Knots Altitude 43126 ft
08:06 Wind:256º@023 Knots Heading: 298º Ground Speed: 493 Knots Altitude 43113 ft
08:21 Wind:234º@020 Knots Heading: 275º Ground Speed: 494 Knots Altitude 43192 ft
08:36 Wind:235º@019 Knots Heading: 288º Ground Speed: 499 Knots Altitude 43211 ft
08:51 Wind:233º@018 Knots Heading: 287º Ground Speed: 503 Knots Altitude 43228 ft
09:06 Wind:229º@019 Knots Heading: 285º Ground Speed: 499 Knots Altitude 43241 ft
09:21 Wind:231º@016 Knots Heading: 276º Ground Speed: 498 Knots Altitude 43244 ft
09:36 Wind:269º@007 Knots Heading: 286º Ground Speed: 504 Knots Altitude 43215 ft
09:51 Wind:352º@010 Knots Heading: 280º Ground Speed: 508 Knots Altitude 43202 ft
09:55 TOD
09:55 Fuel Weight: 4229 Lb
10:06 Wind:032º@021 Knots Heading: 262º Ground Speed: 431 Knots Altitude 21148 ft
10:21 Wind:051º@017 Knots Heading: 258º Ground Speed: 424 Knots Altitude 19255 ft
10:36 Wind:307º@005 Knots Heading: 275º Ground Speed: 220 Knots Altitude 4484 ft
10:37 Flaps:2 at 203 Knots
10:38 Flaps:3 at 178 Knots
10:38 Gear Down: 168 Knots
10:39 Flaps:4 at 153 Knots
10:40 Flaps:5 at 140 Knots
10:43 TouchDown:Rate -140 ft/min Speed: 118 Knots
10:43 VATSIM:LEPA 011030Z 23006KT 200V270 CAVOK 22/12 Q1022 NOSIG
10:43 Land
10:43 Wind:229º@006 Knots
10:43 Heading: 238º
10:43 Flight Duration: 03:22
10:43 Landing Weight: 26435 Lbs
10:43 POS N39º 32´ 57´´ E002º 44´ 54´´
10:47 Parking brakes on
10:47 Block to Block Duration: 03:30
10:47 Final Fuel: 3436 Lbls
10:47 Spent Fuel: 4486 Lbls
10:47 Flight Length: 1547 NM
10:47 TOD Land Length: 284 NM

Exportar CSV

Powered by Drupal - Modified by Danger4k